createdAt,value
2023-11-24T00:02:50.874Z,2.60
2023-11-24T00:05:52.790Z,2.57
2023-11-24T00:08:54.645Z,2.57
2023-11-24T00:11:59.832Z,2.53
2023-11-24T00:15:05.136Z,2.56
2023-11-24T00:18:07.455Z,2.52
2023-11-24T00:21:10.494Z,2.51
2023-11-24T00:24:12.405Z,2.51
2023-11-24T00:27:14.385Z,2.48
2023-11-24T00:30:16.248Z,2.45
2023-11-24T00:33:21.283Z,2.46
2023-11-24T00:36:23.971Z,2.39
2023-11-24T00:39:25.882Z,2.37
2023-11-24T00:42:30.612Z,2.32
2023-11-24T00:45:32.524Z,2.35
2023-11-24T00:51:36.798Z,2.36
2023-11-24T00:54:38.791Z,2.34
2023-11-24T00:57:40.681Z,2.26
2023-11-24T01:00:42.674Z,2.25
2023-11-24T01:03:44.720Z,2.23
2023-11-24T01:06:46.721Z,2.25
2023-11-24T01:09:51.050Z,2.24
2023-11-24T01:12:52.969Z,2.27
2023-11-24T01:15:55.041Z,2.26
2023-11-24T01:18:57.704Z,2.29
2023-11-24T01:21:59.998Z,2.32
2023-11-24T01:25:03.004Z,2.40
2023-11-24T01:28:05.279Z,2.39
2023-11-24T01:31:07.361Z,2.44
2023-11-24T01:34:09.315Z,2.45
2023-11-24T01:37:11.352Z,2.55
2023-11-24T01:40:13.801Z,2.58
2023-11-24T01:43:17.138Z,2.64
2023-11-24T01:46:19.076Z,2.67
2023-11-24T01:49:22.084Z,2.67
2023-11-24T01:52:24.162Z,2.69
2023-11-24T01:55:27.437Z,2.68
2023-11-24T01:58:31.168Z,2.73
2023-11-24T02:01:35.104Z,2.75
2023-11-24T02:04:37.021Z,2.75
2023-11-24T02:07:39.771Z,2.72
2023-11-24T02:10:41.651Z,2.80
2023-11-24T02:13:43.566Z,2.73
2023-11-24T02:16:46.192Z,2.78
2023-11-24T02:19:48.166Z,2.87
2023-11-24T02:22:50.005Z,2.91
2023-11-24T02:25:51.864Z,3.01
2023-11-24T02:28:54.177Z,3.09
2023-11-24T02:31:56.121Z,3.19
2023-11-24T02:34:58.120Z,3.26
2023-11-24T02:38:00.147Z,3.33
2023-11-24T02:41:02.134Z,3.35
2023-11-24T02:44:04.215Z,3.39
2023-11-24T02:47:07.374Z,3.37
2023-11-24T02:50:09.434Z,3.41
2023-11-24T02:53:11.239Z,3.41
2023-11-24T02:56:13.894Z,3.41
2023-11-24T02:59:16.028Z,3.39
2023-11-24T03:02:18.030Z,3.45
2023-11-24T03:05:20.312Z,3.44
2023-11-24T03:08:22.799Z,3.43
2023-11-24T03:11:26.407Z,3.44
2023-11-24T03:14:29.771Z,3.43
2023-11-24T03:17:31.785Z,3.41
2023-11-24T03:20:34.115Z,3.42
2023-11-24T03:23:35.980Z,3.41
2023-11-24T03:26:37.839Z,3.40
2023-11-24T03:29:41.302Z,3.39
2023-11-24T03:32:43.170Z,3.33
2023-11-24T03:35:45.123Z,3.38
2023-11-24T03:38:46.924Z,3.37
2023-11-24T03:41:49.200Z,3.35
2023-11-24T03:44:50.983Z,3.33
2023-11-24T03:47:52.849Z,3.33
2023-11-24T03:50:54.790Z,3.32
2023-11-24T03:53:56.619Z,3.34
2023-11-24T03:56:58.625Z,3.36
2023-11-24T04:00:00.496Z,3.36
2023-11-24T04:03:03.062Z,3.41
2023-11-24T04:06:05.222Z,3.42
2023-11-24T04:09:07.477Z,3.44
2023-11-24T04:12:09.577Z,3.46
2023-11-24T04:15:12.263Z,3.50
2023-11-24T04:18:14.071Z,3.49
2023-11-24T04:21:17.271Z,3.47
2023-11-24T04:24:19.100Z,3.51
2023-11-24T04:27:20.932Z,3.52
2023-11-24T04:30:22.824Z,3.48
2023-11-24T04:33:24.678Z,3.47
2023-11-24T04:36:26.611Z,3.53
2023-11-24T04:39:28.650Z,3.52
2023-11-24T04:42:30.583Z,3.53
2023-11-24T04:45:32.667Z,3.54
2023-11-24T04:48:40.558Z,3.56
2023-11-24T04:51:42.593Z,3.64
2023-11-24T04:54:44.577Z,3.62
2023-11-24T04:57:51.127Z,3.65
2023-11-24T05:00:53.323Z,3.70
2023-11-24T05:03:56.514Z,3.63
2023-11-24T05:06:58.636Z,3.69
2023-11-24T05:10:00.565Z,3.67
2023-11-24T05:13:02.575Z,3.77
2023-11-24T05:16:04.840Z,3.79
2023-11-24T05:19:06.751Z,3.79
2023-11-24T05:22:08.590Z,3.80
2023-11-24T05:25:10.642Z,3.80
2023-11-24T05:28:12.803Z,3.76
2023-11-24T05:31:14.910Z,3.75
2023-11-24T05:34:16.880Z,3.72
2023-11-24T05:37:18.894Z,3.68
2023-11-24T05:40:20.812Z,3.63
2023-11-24T05:43:22.652Z,3.63
2023-11-24T05:46:24.685Z,3.65
2023-11-24T05:49:26.717Z,3.65
2023-11-24T05:52:28.616Z,3.59
2023-11-24T05:55:30.499Z,3.55
2023-11-24T05:58:32.706Z,3.55
2023-11-24T06:01:34.883Z,3.56
2023-11-24T06:04:36.875Z,3.60
2023-11-24T06:07:41.101Z,3.55
2023-11-24T06:10:42.952Z,3.53
2023-11-24T06:13:48.299Z,3.58
2023-11-24T06:16:50.147Z,3.58
2023-11-24T06:19:52.056Z,3.62
2023-11-24T06:22:53.886Z,3.68
2023-11-24T06:25:55.751Z,3.70
2023-11-24T06:28:57.635Z,3.79
2023-11-24T06:31:59.459Z,3.87
2023-11-24T06:35:01.347Z,3.92
2023-11-24T06:38:03.183Z,3.91
2023-11-24T06:41:07.313Z,3.96
2023-11-24T06:44:09.176Z,3.91
2023-11-24T06:47:11.574Z,4.00
2023-11-24T06:50:14.444Z,4.00
2023-11-24T06:53:16.444Z,3.99
2023-11-24T06:56:18.927Z,4.02
2023-11-24T06:59:20.825Z,4.05
2023-11-24T07:02:22.679Z,4.08
2023-11-24T07:05:24.786Z,4.18
2023-11-24T07:08:26.972Z,4.17
2023-11-24T07:11:28.949Z,4.22
2023-11-24T07:14:30.909Z,4.28
2023-11-24T07:17:32.774Z,4.31
2023-11-24T07:20:34.753Z,4.36
2023-11-24T07:23:39.681Z,4.41
2023-11-24T07:26:41.546Z,4.51
2023-11-24T07:29:43.842Z,4.54
2023-11-24T07:32:45.710Z,4.55
2023-11-24T07:35:47.555Z,4.56
2023-11-24T07:38:49.715Z,4.71
2023-11-24T07:41:51.612Z,4.79
2023-11-24T07:44:53.598Z,4.87
2023-11-24T07:47:55.525Z,4.85
2023-11-24T07:50:57.451Z,4.93
2023-11-24T07:53:59.302Z,5.12
2023-11-24T07:57:01.314Z,5.06
2023-11-24T08:00:05.299Z,5.03
2023-11-24T08:03:07.662Z,5.12
2023-11-24T08:06:09.632Z,5.06
2023-11-24T08:09:13.763Z,5.08
2023-11-24T08:12:15.673Z,5.26
2023-11-24T08:15:17.596Z,5.58
2023-11-24T08:18:19.444Z,5.76
2023-11-24T08:21:21.449Z,5.72
2023-11-24T08:24:23.343Z,7.63
2023-11-24T08:27:26.545Z,7.98
2023-11-24T08:30:28.377Z,9.13
2023-11-24T08:33:30.191Z,8.48
2023-11-24T08:36:32.949Z,9.17
2023-11-24T08:39:35.097Z,9.37
2023-11-24T08:42:37.037Z,9.53
2023-11-24T08:45:39.027Z,10.68
2023-11-24T08:48:42.179Z,9.91
2023-11-24T08:51:44.839Z,8.69
2023-11-24T08:54:47.219Z,7.84
2023-11-24T08:57:49.233Z,7.48
2023-11-24T09:00:51.299Z,7.46
2023-11-24T09:03:53.600Z,7.96
2023-11-24T09:06:55.628Z,7.82
2023-11-24T09:09:57.603Z,7.22
2023-11-24T09:12:59.645Z,7.00
2023-11-24T09:16:03.813Z,6.76
2023-11-24T09:19:05.909Z,6.89
2023-11-24T09:22:07.895Z,6.91
2023-11-24T09:25:10.290Z,7.47
2023-11-24T09:28:12.325Z,8.23
2023-11-24T09:31:14.453Z,8.77
2023-11-24T09:34:16.649Z,8.16
2023-11-24T09:37:18.516Z,8.30
2023-11-24T09:40:25.297Z,7.68
2023-11-24T09:43:27.685Z,7.37
2023-11-24T09:46:39.603Z,7.38
2023-11-24T09:49:48.699Z,8.00
2023-11-24T09:52:51.539Z,8.42
2023-11-24T09:55:53.756Z,7.95
2023-11-24T09:58:55.750Z,8.35
2023-11-24T10:02:01.837Z,8.29
2023-11-24T10:05:07.397Z,7.25
2023-11-24T10:08:10.575Z,7.06
2023-11-24T10:11:29.035Z,6.90
2023-11-24T10:14:31.522Z,6.81
2023-11-24T10:17:34.897Z,6.73
2023-11-24T10:20:36.921Z,6.30
2023-11-24T10:23:40.267Z,6.42
2023-11-24T10:26:45.273Z,6.10
2023-11-24T10:29:51.299Z,6.16
2023-11-24T10:32:53.417Z,6.31
2023-11-24T10:35:55.423Z,6.13
2023-11-24T10:39:03.538Z,5.86
2023-11-24T10:42:06.826Z,5.85
2023-11-24T10:45:12.494Z,5.90
2023-11-24T10:48:21.837Z,6.00
2023-11-24T10:51:36.908Z,5.95
2023-11-24T10:54:46.675Z,5.71
2023-11-24T10:57:48.710Z,5.46
2023-11-24T11:00:51.563Z,5.82
2023-11-24T11:03:58.488Z,6.11
2023-11-24T11:07:16.606Z,6.13
2023-11-24T11:10:27.125Z,5.86
2023-11-24T11:13:31.328Z,5.50
2023-11-24T11:16:33.892Z,5.44
2023-11-24T11:19:35.770Z,5.36
2023-11-24T11:22:39.151Z,5.18
2023-11-24T11:25:43.694Z,5.16
2023-11-24T11:28:47.541Z,4.91
2023-11-24T11:31:53.186Z,4.81
2023-11-24T11:34:55.257Z,4.81
2023-11-24T11:38:00.713Z,4.89
2023-11-24T11:41:05.232Z,4.97
2023-11-24T11:44:25.962Z,5.02
2023-11-24T11:47:29.853Z,5.23
2023-11-24T11:50:35.017Z,5.21
2023-11-24T11:53:40.140Z,5.14
2023-11-24T11:56:41.999Z,5.14
2023-11-24T11:59:44.565Z,5.15
2023-11-24T12:02:48.592Z,4.94
2023-11-24T12:05:52.891Z,4.71
2023-11-24T12:08:55.361Z,4.70
2023-11-24T12:11:57.469Z,4.71
2023-11-24T12:15:01.988Z,4.58
2023-11-24T12:18:06.678Z,4.54
2023-11-24T12:21:09.143Z,4.51
2023-11-24T12:24:15.450Z,4.50
2023-11-24T12:27:19.670Z,4.60
2023-11-24T12:30:23.715Z,4.71
2023-11-24T12:33:25.929Z,4.65
2023-11-24T12:36:28.068Z,4.54
2023-11-24T12:39:35.454Z,4.50
2023-11-24T12:42:39.155Z,4.55
2023-11-24T12:45:42.295Z,4.60
2023-11-24T12:48:46.439Z,4.56
2023-11-24T12:51:49.187Z,4.60
2023-11-24T12:54:51.395Z,4.47
2023-11-24T12:57:53.520Z,4.40
2023-11-24T13:00:58.214Z,4.44
2023-11-24T13:04:01.240Z,4.44
2023-11-24T13:07:05.734Z,4.38
2023-11-24T13:10:12.186Z,4.42
2023-11-24T13:13:15.488Z,4.43
2023-11-24T13:16:17.616Z,4.31
2023-11-24T13:19:21.012Z,4.29
2023-11-24T13:22:23.121Z,4.23
2023-11-24T13:25:30.344Z,4.31
2023-11-24T13:28:33.063Z,4.30
2023-11-24T13:31:42.083Z,4.24
2023-11-24T13:34:43.973Z,4.24
2023-11-24T13:37:50.822Z,4.22
2023-11-24T13:40:53.525Z,4.19
2023-11-24T13:43:55.477Z,4.19
2023-11-24T13:47:00.597Z,4.12
2023-11-24T13:50:05.395Z,4.13
2023-11-24T13:53:13.156Z,4.11
2023-11-24T13:56:15.930Z,4.10
2023-11-24T13:59:18.907Z,3.99
2023-11-24T14:02:21.178Z,3.90
2023-11-24T14:05:23.407Z,3.86
2023-11-24T14:08:25.698Z,3.83
2023-11-24T14:11:27.594Z,3.72
2023-11-24T14:14:30.206Z,3.66
2023-11-24T14:17:34.206Z,3.58
2023-11-24T14:20:37.838Z,3.49
2023-11-24T14:23:39.693Z,3.42
2023-11-24T14:26:45.949Z,3.31
2023-11-24T14:29:48.433Z,3.32
2023-11-24T14:32:50.578Z,3.17
2023-11-24T14:35:52.394Z,3.16
2023-11-24T14:38:57.914Z,3.05
2023-11-24T14:42:00.272Z,3.00
2023-11-24T14:45:02.378Z,2.91
2023-11-24T14:48:06.380Z,2.88
2023-11-24T14:51:12.186Z,2.85
2023-11-24T14:54:15.754Z,2.83
2023-11-24T14:57:17.679Z,2.79
2023-11-24T15:00:45.586Z,2.72
2023-11-24T15:03:49.802Z,2.71
2023-11-24T15:06:52.946Z,2.61
2023-11-24T15:09:56.167Z,2.62
2023-11-24T15:12:58.012Z,2.49
2023-11-24T15:16:00.050Z,2.47
2023-11-24T15:19:01.902Z,2.42
2023-11-24T15:22:09.894Z,2.37
2023-11-24T15:25:12.467Z,2.28
2023-11-24T15:28:21.402Z,2.23
2023-11-24T15:31:31.172Z,2.19
2023-11-24T15:34:35.911Z,2.15
2023-11-24T15:37:40.675Z,2.17
2023-11-24T15:40:43.581Z,2.14
2023-11-24T15:43:45.513Z,2.10
2023-11-24T15:46:47.401Z,2.06
2023-11-24T15:49:51.244Z,1.99
2023-11-24T15:52:53.418Z,1.97
2023-11-24T15:55:55.368Z,1.94
2023-11-24T15:59:00.224Z,1.88
2023-11-24T16:02:03.697Z,1.88
2023-11-24T16:05:07.801Z,1.93
2023-11-24T16:08:11.869Z,1.90
2023-11-24T16:11:13.906Z,1.93
2023-11-24T16:14:16.376Z,1.90
2023-11-24T16:17:18.260Z,1.83
2023-11-24T16:20:20.361Z,1.83
2023-11-24T16:23:22.181Z,1.83
2023-11-24T16:26:24.479Z,1.81
2023-11-24T16:29:26.942Z,1.85
2023-11-24T16:32:29.069Z,1.79
2023-11-24T16:35:30.978Z,1.85
2023-11-24T16:38:33.292Z,1.83
2023-11-24T16:41:38.425Z,1.80
2023-11-24T16:44:40.480Z,1.84
2023-11-24T16:47:43.857Z,1.84
2023-11-24T16:50:47.138Z,1.86
2023-11-24T16:53:49.025Z,1.87
2023-11-24T16:56:51.191Z,1.88
2023-11-24T16:59:53.941Z,1.94
2023-11-24T17:02:56.028Z,1.96
2023-11-24T17:05:58.306Z,2.01
2023-11-24T17:09:01.050Z,2.06
2023-11-24T17:12:03.380Z,2.01
2023-11-24T17:15:11.194Z,1.92
2023-11-24T17:18:14.072Z,1.93
2023-11-24T17:21:16.042Z,1.92
2023-11-24T17:24:18.031Z,1.96
2023-11-24T17:27:20.158Z,1.96
2023-11-24T17:30:25.072Z,1.98
2023-11-24T17:33:27.200Z,1.94
2023-11-24T17:36:29.850Z,2.05
2023-11-24T17:39:32.452Z,1.99
2023-11-24T17:42:35.513Z,1.99
2023-11-24T17:45:37.543Z,1.98
2023-11-24T17:48:39.534Z,1.93
2023-11-24T17:51:43.114Z,1.87
2023-11-24T17:54:45.366Z,1.82
2023-11-24T17:57:49.090Z,1.80
2023-11-24T18:00:51.186Z,1.78
2023-11-24T18:03:53.400Z,1.76
2023-11-24T18:06:55.680Z,1.72
2023-11-24T18:09:57.940Z,1.63
2023-11-24T18:13:00.631Z,1.57
2023-11-24T18:16:04.375Z,1.50
2023-11-24T18:19:06.441Z,1.51
2023-11-24T18:22:09.818Z,1.51
2023-11-24T18:25:13.347Z,1.44
2023-11-24T18:28:15.776Z,1.42
2023-11-24T18:31:18.176Z,1.42
2023-11-24T18:34:26.598Z,1.38
2023-11-24T18:37:30.173Z,1.30
2023-11-24T18:40:32.516Z,1.31
2023-11-24T18:43:39.820Z,1.23
2023-11-24T18:46:43.146Z,1.22
2023-11-24T18:49:48.322Z,1.23
2023-11-24T18:52:50.271Z,1.22
2023-11-24T18:55:52.203Z,1.23
2023-11-24T18:58:54.292Z,1.21
2023-11-24T19:01:58.357Z,1.21
2023-11-24T19:05:00.664Z,1.21
2023-11-24T19:08:02.649Z,1.22
2023-11-24T19:11:07.237Z,1.29
2023-11-24T19:14:09.294Z,1.31
2023-11-24T19:17:11.641Z,1.32
2023-11-24T19:20:14.293Z,1.38
2023-11-24T19:23:16.182Z,1.38
2023-11-24T19:26:18.150Z,1.37
2023-11-24T19:29:20.387Z,1.44
2023-11-24T19:32:23.139Z,1.40
2023-11-24T19:35:25.767Z,1.39
2023-11-24T19:38:27.697Z,1.40
2023-11-24T19:41:29.986Z,1.44
2023-11-24T19:44:31.932Z,1.44
2023-11-24T19:47:33.981Z,1.43
2023-11-24T19:50:35.929Z,1.46
2023-11-24T19:53:37.835Z,1.47
2023-11-24T19:56:42.021Z,1.43
2023-11-24T19:59:44.913Z,1.42
2023-11-24T20:02:50.820Z,1.42
2023-11-24T20:05:55.816Z,1.45
2023-11-24T20:08:57.753Z,1.52
2023-11-24T20:11:59.710Z,1.48
2023-11-24T20:15:01.757Z,1.43
2023-11-24T20:18:04.363Z,1.38
2023-11-24T20:21:06.864Z,1.37
2023-11-24T20:24:11.227Z,1.35
2023-11-24T20:27:13.330Z,1.38
2023-11-24T20:30:15.707Z,1.44
2023-11-24T20:33:21.150Z,1.42
2023-11-24T20:36:23.417Z,1.49
2023-11-24T20:39:25.314Z,1.55
2023-11-24T20:42:27.562Z,1.57
2023-11-24T20:45:30.197Z,1.55
2023-11-24T20:48:32.089Z,1.53
2023-11-24T20:51:34.064Z,1.48
2023-11-24T20:54:36.165Z,1.48
2023-11-24T20:57:38.168Z,1.52
2023-11-24T21:00:40.277Z,1.53
2023-11-24T21:03:42.762Z,1.58
2023-11-24T21:06:45.655Z,1.57
2023-11-24T21:09:47.698Z,1.59
2023-11-24T21:12:49.677Z,1.67
2023-11-24T21:15:51.756Z,1.68
2023-11-24T21:18:54.014Z,1.66
2023-11-24T21:21:56.078Z,1.69
2023-11-24T21:24:59.681Z,1.66
2023-11-24T21:28:01.790Z,1.65
2023-11-24T21:31:03.729Z,1.58
2023-11-24T21:34:05.837Z,1.61
2023-11-24T21:37:09.435Z,1.57
2023-11-24T21:40:14.786Z,1.58
2023-11-24T21:43:17.130Z,1.58
2023-11-24T21:46:22.850Z,1.49
2023-11-24T21:49:25.077Z,1.51
2023-11-24T21:52:27.814Z,1.53
2023-11-24T21:55:32.924Z,1.48
2023-11-24T21:58:38.131Z,1.50
2023-11-24T22:01:40.329Z,1.48
2023-11-24T22:04:42.627Z,1.51
2023-11-24T22:07:44.805Z,1.52
2023-11-24T22:10:47.161Z,1.55
2023-11-24T22:13:49.246Z,1.56
2023-11-24T22:16:52.112Z,1.54
2023-11-24T22:19:54.907Z,1.51
2023-11-24T22:22:56.803Z,1.55
2023-11-24T22:25:59.268Z,1.54
2023-11-24T22:29:04.126Z,1.54
2023-11-24T22:32:06.864Z,1.52
2023-11-24T22:35:09.291Z,1.45
2023-11-24T22:38:11.228Z,1.45
2023-11-24T22:41:20.252Z,1.40
2023-11-24T22:44:22.081Z,1.43
2023-11-24T22:47:25.306Z,1.37
2023-11-24T22:50:28.462Z,1.42
2023-11-24T22:53:32.489Z,1.40
2023-11-24T22:56:34.473Z,1.31
2023-11-24T22:59:36.375Z,1.27
2023-11-24T23:02:39.223Z,1.20
2023-11-24T23:05:43.389Z,1.18
2023-11-24T23:08:46.887Z,1.05
2023-11-24T23:11:49.205Z,1.01
2023-11-24T23:14:52.103Z,0.93
2023-11-24T23:17:54.316Z,0.85
2023-11-24T23:20:56.589Z,0.80
2023-11-24T23:23:58.996Z,0.71
2023-11-24T23:27:09.663Z,0.64
2023-11-24T23:30:15.227Z,0.57
2023-11-24T23:33:18.572Z,0.47
2023-11-24T23:36:20.712Z,0.41
2023-11-24T23:39:22.606Z,0.44
2023-11-24T23:42:28.178Z,0.37
2023-11-24T23:45:30.062Z,0.25
2023-11-24T23:48:33.300Z,0.24
2023-11-24T23:51:36.006Z,0.22
2023-11-24T23:54:37.898Z,0.27
2023-11-24T23:57:39.845Z,0.26
